createdAt,value
2018-12-09T00:02:12.835Z,2.60
2018-12-09T00:04:43.085Z,2.63
2018-12-09T00:07:12.570Z,2.03
2018-12-09T00:09:41.014Z,2.20
2018-12-09T00:12:10.296Z,1.87
2018-12-09T00:14:40.146Z,1.50
2018-12-09T00:17:09.669Z,1.70
2018-12-09T00:19:39.548Z,1.10
2018-12-09T00:22:08.671Z,1.10
2018-12-09T00:24:38.618Z,1.10
2018-12-09T00:27:07.013Z,1.10
2018-12-09T00:29:35.355Z,1.03
2018-12-09T00:32:04.296Z,2.13
2018-12-09T00:34:34.615Z,0.90
2018-12-09T00:37:03.369Z,1.10
2018-12-09T00:39:32.600Z,1.27
2018-12-09T00:42:01.779Z,1.20
2018-12-09T00:44:30.940Z,1.10
2018-12-09T00:47:00.439Z,1.00
2018-12-09T00:49:30.698Z,1.30
2018-12-09T00:51:59.373Z,1.30
2018-12-09T00:54:29.376Z,1.20
2018-12-09T00:56:59.644Z,1.00
2018-12-09T00:59:29.412Z,1.33
2018-12-09T01:01:58.164Z,1.33
2018-12-09T01:04:26.632Z,1.47
2018-12-09T01:06:54.970Z,1.43
2018-12-09T01:09:24.098Z,1.30
2018-12-09T01:11:53.354Z,1.47
2018-12-09T01:14:23.782Z,1.40
2018-12-09T01:16:53.414Z,1.60
2018-12-09T01:19:23.493Z,1.67
2018-12-09T01:21:53.439Z,1.73
2018-12-09T01:24:23.410Z,1.60
2018-12-09T01:26:52.788Z,1.87
2018-12-09T01:29:22.661Z,2.50
2018-12-09T01:31:52.629Z,2.30
2018-12-09T01:34:21.754Z,2.03
2018-12-09T01:36:51.042Z,1.97
2018-12-09T01:39:21.081Z,1.80
2018-12-09T01:41:50.969Z,1.80
2018-12-09T01:44:21.056Z,2.10
2018-12-09T01:46:51.354Z,1.80
2018-12-09T01:49:21.624Z,1.90
2018-12-09T01:51:51.422Z,1.93
2018-12-09T01:54:21.022Z,1.60
2018-12-09T01:56:50.854Z,1.73
2018-12-09T01:59:19.364Z,2.27
2018-12-09T02:01:47.708Z,2.93
2018-12-09T02:04:16.352Z,2.50
2018-12-09T02:06:44.802Z,2.00
2018-12-09T02:09:14.163Z,2.50
2018-12-09T02:11:43.392Z,2.37
2018-12-09T02:14:12.726Z,1.90
2018-12-09T02:16:42.695Z,1.53
2018-12-09T02:19:16.058Z,1.97
2018-12-09T02:21:44.932Z,1.43
2018-12-09T02:24:14.194Z,1.50
2018-12-09T02:26:43.376Z,1.30
2018-12-09T02:29:12.770Z,1.60
2018-12-09T02:31:42.871Z,1.20
2018-12-09T02:34:12.718Z,1.67
2018-12-09T02:36:42.704Z,1.97
2018-12-09T02:39:12.671Z,1.63
2018-12-09T02:41:42.662Z,1.67
2018-12-09T02:44:12.736Z,1.70
2018-12-09T02:46:42.685Z,1.83
2018-12-09T02:49:11.919Z,1.60
2018-12-09T02:51:41.885Z,1.20
2018-12-09T02:54:11.842Z,1.47
2018-12-09T02:56:41.891Z,1.80
2018-12-09T02:59:11.820Z,1.13
2018-12-09T03:01:41.016Z,1.20
2018-12-09T03:04:10.197Z,2.13
2018-12-09T03:06:40.185Z,1.50
2018-12-09T03:09:10.353Z,1.87
2018-12-09T03:11:40.191Z,2.10
2018-12-09T03:14:09.479Z,2.10
2018-12-09T03:16:39.429Z,2.30
2018-12-09T03:19:09.345Z,2.67
2018-12-09T03:21:37.692Z,2.00
2018-12-09T03:24:07.225Z,3.03
2018-12-09T03:26:35.582Z,2.00
2018-12-09T03:29:04.271Z,2.20
2018-12-09T03:31:33.664Z,1.90
2018-12-09T03:34:03.440Z,2.60
2018-12-09T03:36:32.693Z,2.23
2018-12-09T03:39:02.706Z,2.73
2018-12-09T03:41:31.957Z,2.03
2018-12-09T03:44:01.705Z,2.40
2018-12-09T03:46:31.925Z,2.70
2018-12-09T03:49:02.181Z,2.10
2018-12-09T03:51:31.860Z,2.10
2018-12-09T03:54:02.126Z,2.00
2018-12-09T03:56:31.858Z,2.50
2018-12-09T03:59:01.862Z,2.87
2018-12-09T04:01:31.063Z,2.83
2018-12-09T04:03:59.506Z,3.23
2018-12-09T04:06:29.370Z,3.40
2018-12-09T04:08:57.733Z,3.67
2018-12-09T04:11:26.330Z,4.90
2018-12-09T04:13:54.721Z,4.00
2018-12-09T04:16:24.257Z,3.90
2018-12-09T04:18:53.948Z,3.70
2018-12-09T04:21:23.340Z,3.43
2018-12-09T04:23:53.586Z,3.57
2018-12-09T04:26:23.346Z,3.70
2018-12-09T04:28:51.704Z,3.33
2018-12-09T04:31:20.371Z,3.20
2018-12-09T04:33:49.350Z,3.83
2018-12-09T04:36:17.718Z,4.23
2018-12-09T04:38:46.072Z,4.17
2018-12-09T04:41:14.526Z,4.10
2018-12-09T04:43:44.189Z,3.60
2018-12-09T04:46:14.263Z,4.27
2018-12-09T04:48:44.201Z,3.90
2018-12-09T04:51:13.409Z,3.90
2018-12-09T04:53:42.848Z,3.60
2018-12-09T04:56:12.780Z,3.83
2018-12-09T04:58:46.217Z,4.20
2018-12-09T05:01:14.592Z,3.50
2018-12-09T05:03:44.852Z,3.60
2018-12-09T05:06:14.418Z,3.23
2018-12-09T05:08:43.501Z,3.47
2018-12-09T05:11:13.448Z,3.80
2018-12-09T05:13:43.572Z,3.30
2018-12-09T05:16:13.827Z,3.43
2018-12-09T05:18:43.491Z,3.10
2018-12-09T05:21:13.761Z,2.77
2018-12-09T05:23:44.461Z,3.10
2018-12-09T05:26:14.216Z,2.40
2018-12-09T05:28:43.373Z,2.93
2018-12-09T05:31:12.636Z,3.13
2018-12-09T05:33:41.828Z,2.70
2018-12-09T05:36:11.109Z,2.40
2018-12-09T05:38:41.096Z,2.70
2018-12-09T05:41:10.962Z,2.30
2018-12-09T05:43:40.124Z,2.27
2018-12-09T05:46:09.492Z,2.00
2018-12-09T05:48:39.403Z,1.60
2018-12-09T05:51:07.741Z,1.40
2018-12-09T05:53:36.082Z,1.20
2018-12-09T05:56:05.240Z,1.63
2018-12-09T05:58:34.598Z,1.40
2018-12-09T06:01:04.203Z,0.73
2018-12-09T06:03:33.569Z,1.00
2018-12-09T06:06:03.001Z,1.03
2018-12-09T06:08:32.660Z,1.10
2018-12-09T06:11:02.635Z,1.07
2018-12-09T06:13:31.804Z,1.00
2018-12-09T06:16:00.975Z,1.13
2018-12-09T06:18:30.230Z,1.00
2018-12-09T06:20:58.965Z,0.80
2018-12-09T06:23:27.328Z,0.80
2018-12-09T06:25:55.657Z,0.70
2018-12-09T06:28:24.317Z,0.80
2018-12-09T06:30:53.563Z,0.80
2018-12-09T06:33:23.474Z,0.67
2018-12-09T06:35:53.540Z,0.60
2018-12-09T06:38:22.706Z,0.70
2018-12-09T06:40:52.654Z,0.70
2018-12-09T06:43:22.695Z,0.70
2018-12-09T06:45:52.761Z,0.70
2018-12-09T06:48:22.639Z,0.60
2018-12-09T06:50:52.935Z,0.70
2018-12-09T06:53:21.308Z,0.67
2018-12-09T06:55:50.992Z,0.60
2018-12-09T06:58:20.953Z,0.50
2018-12-09T07:00:50.327Z,0.60
2018-12-09T07:03:22.580Z,0.60
2018-12-09T07:05:50.958Z,0.80
2018-12-09T07:08:20.228Z,0.57
2018-12-09T07:10:49.379Z,0.70
2018-12-09T07:13:17.752Z,0.77
2018-12-09T07:15:46.134Z,0.57
2018-12-09T07:18:14.501Z,0.60
2018-12-09T07:20:44.152Z,0.60
2018-12-09T07:23:15.451Z,0.63
2018-12-09T07:25:45.204Z,0.70
2018-12-09T07:28:14.256Z,0.70
2018-12-09T07:30:43.982Z,0.87
2018-12-09T07:33:13.743Z,0.53
2018-12-09T07:35:43.414Z,0.60
2018-12-09T07:38:12.665Z,0.70
2018-12-09T07:40:42.716Z,0.70
2018-12-09T07:43:12.673Z,0.50
2018-12-09T07:45:43.753Z,0.60
2018-12-09T07:48:16.098Z,1.03
2018-12-09T07:50:44.794Z,0.70
2018-12-09T07:53:14.314Z,0.80
2018-12-09T07:55:44.638Z,0.70
2018-12-09T07:58:15.141Z,0.63
2018-12-09T08:00:44.306Z,0.87
2018-12-09T08:03:17.455Z,0.53
2018-12-09T08:05:46.210Z,0.70
2018-12-09T08:08:15.633Z,0.70
2018-12-09T08:10:44.201Z,0.70
2018-12-09T08:13:14.417Z,0.70
2018-12-09T08:15:44.373Z,1.53
2018-12-09T08:18:14.247Z,0.90
2018-12-09T08:20:43.554Z,0.80
2018-12-09T08:23:12.205Z,0.60
2018-12-09T08:25:41.951Z,0.60
2018-12-09T08:28:11.802Z,0.60
2018-12-09T08:30:41.225Z,0.40
2018-12-09T08:33:12.178Z,0.70
2018-12-09T08:35:42.274Z,0.60
2018-12-09T08:38:11.880Z,0.50
2018-12-09T08:40:41.392Z,0.67
2018-12-09T08:43:11.053Z,0.60
2018-12-09T08:45:40.715Z,0.77
2018-12-09T08:48:09.472Z,0.80
2018-12-09T08:50:39.832Z,0.60
2018-12-09T08:53:10.368Z,0.70
2018-12-09T08:55:41.549Z,0.70
2018-12-09T08:58:10.194Z,0.60
2018-12-09T09:00:40.252Z,0.83
2018-12-09T09:03:10.372Z,0.60
2018-12-09T09:05:40.332Z,0.80
2018-12-09T09:08:10.799Z,0.70
2018-12-09T09:10:39.337Z,0.70
2018-12-09T09:13:07.855Z,0.60
2018-12-09T09:15:36.248Z,0.80
2018-12-09T09:18:04.606Z,1.00
2018-12-09T09:20:34.356Z,0.63
2018-12-09T09:23:03.405Z,0.70
2018-12-09T09:25:32.852Z,0.83
2018-12-09T09:28:02.913Z,0.60
2018-12-09T09:30:32.462Z,0.80
2018-12-09T09:33:01.981Z,0.70
2018-12-09T09:35:31.804Z,0.80
2018-12-09T09:38:01.238Z,0.70
2018-12-09T09:40:30.286Z,0.80
2018-12-09T09:43:00.257Z,0.80
2018-12-09T09:45:28.813Z,0.80
2018-12-09T09:47:57.156Z,0.83
2018-12-09T09:50:25.502Z,0.80
2018-12-09T09:52:54.200Z,0.90
2018-12-09T09:55:25.701Z,0.90
2018-12-09T09:57:54.285Z,0.80
2018-12-09T10:00:24.494Z,1.20
2018-12-09T10:02:54.268Z,1.10
2018-12-09T10:05:24.262Z,1.60
2018-12-09T10:07:53.533Z,1.70
2018-12-09T10:10:22.908Z,1.83
2018-12-09T10:12:53.022Z,1.60
2018-12-09T10:15:22.588Z,2.13
2018-12-09T10:17:51.945Z,1.80
2018-12-09T10:20:21.831Z,2.13
2018-12-09T10:22:50.177Z,1.97
2018-12-09T10:25:19.432Z,2.10
2018-12-09T10:27:48.577Z,2.20
2018-12-09T10:30:17.321Z,1.87
2018-12-09T10:32:45.737Z,1.97
2018-12-09T10:35:14.238Z,2.03
2018-12-09T10:37:44.175Z,2.03
2018-12-09T10:40:13.448Z,2.03
2018-12-09T10:42:42.677Z,2.13
2018-12-09T10:45:12.552Z,2.93
2018-12-09T10:47:42.408Z,1.83
2018-12-09T10:50:11.734Z,2.07
2018-12-09T10:52:41.909Z,2.00
2018-12-09T10:55:10.998Z,2.00
2018-12-09T10:57:40.287Z,1.80
2018-12-09T11:00:11.394Z,1.87
2018-12-09T11:02:41.413Z,1.73
2018-12-09T11:05:11.678Z,2.23
2018-12-09T11:07:40.971Z,1.40
2018-12-09T11:10:10.702Z,2.63
2018-12-09T11:12:40.393Z,1.80
2018-12-09T11:15:09.464Z,2.50
2018-12-09T11:17:38.196Z,2.83
2018-12-09T11:20:06.682Z,1.90
2018-12-09T11:22:35.011Z,2.30
2018-12-09T11:25:05.536Z,2.07
2018-12-09T11:27:34.309Z,2.20
2018-12-09T11:30:05.517Z,1.90
2018-12-09T11:32:34.391Z,1.90
2018-12-09T11:35:04.735Z,1.73
2018-12-09T11:37:34.438Z,2.40
2018-12-09T11:40:04.681Z,2.80
2018-12-09T11:42:34.428Z,1.80
2018-12-09T11:45:05.442Z,2.00
2018-12-09T11:47:34.471Z,1.97
2018-12-09T11:50:06.149Z,1.97
2018-12-09T11:52:34.550Z,2.40
2018-12-09T11:55:04.484Z,1.60
2018-12-09T11:57:34.314Z,1.90
2018-12-09T12:00:09.373Z,1.70
2018-12-09T12:02:37.773Z,1.73
2018-12-09T12:05:07.247Z,1.80
2018-12-09T12:07:35.753Z,2.00
2018-12-09T12:10:05.389Z,2.10
2018-12-09T12:12:34.242Z,1.90
2018-12-09T12:15:05.176Z,2.23
2018-12-09T12:17:34.386Z,1.47
2018-12-09T12:20:05.930Z,2.37
2018-12-09T12:22:35.676Z,2.20
2018-12-09T12:25:04.439Z,1.83
2018-12-09T12:27:33.575Z,2.07
2018-12-09T12:30:05.581Z,2.13
2018-12-09T12:32:34.154Z,1.97
2018-12-09T12:35:04.138Z,1.93
2018-12-09T12:37:32.498Z,1.90
2018-12-09T12:40:02.096Z,1.90
2018-12-09T12:42:32.516Z,2.00
2018-12-09T12:45:01.768Z,2.23
2018-12-09T12:47:31.445Z,1.73
2018-12-09T12:50:01.802Z,1.73
2018-12-09T12:52:31.898Z,1.90
2018-12-09T12:55:04.067Z,1.90
2018-12-09T12:57:34.311Z,1.90
2018-12-09T13:00:09.552Z,2.60
2018-12-09T13:02:38.005Z,1.60
2018-12-09T13:05:06.447Z,1.70
2018-12-09T13:07:34.812Z,1.90
2018-12-09T13:10:05.644Z,2.43
2018-12-09T13:12:34.355Z,1.73
2018-12-09T13:15:05.624Z,1.80
2018-12-09T13:17:34.533Z,1.90
2018-12-09T13:20:05.485Z,2.20
2018-12-09T13:22:34.214Z,1.73
2018-12-09T13:25:04.443Z,1.93
2018-12-09T13:27:34.330Z,1.60
2018-12-09T13:30:04.542Z,1.67
2018-12-09T13:32:34.309Z,1.70
2018-12-09T13:35:04.320Z,1.83
2018-12-09T13:37:34.500Z,1.70
2018-12-09T13:40:03.021Z,2.00
2018-12-09T13:42:32.591Z,1.90
2018-12-09T13:45:01.744Z,1.90
2018-12-09T13:47:30.321Z,1.47
2018-12-09T13:50:00.583Z,1.73
2018-12-09T13:52:30.846Z,1.97
2018-12-09T13:55:01.013Z,1.40
2018-12-09T13:57:29.518Z,1.33
2018-12-09T13:59:59.777Z,1.10
2018-12-09T14:02:29.535Z,1.20
2018-12-09T14:04:59.534Z,1.00
2018-12-09T14:07:29.369Z,1.10
2018-12-09T14:09:57.724Z,1.13
2018-12-09T14:12:26.111Z,1.10
2018-12-09T14:14:54.469Z,1.20
2018-12-09T14:17:24.322Z,1.47
2018-12-09T14:19:54.193Z,1.40
2018-12-09T14:22:23.639Z,1.20
2018-12-09T14:24:53.431Z,1.30
2018-12-09T14:27:23.393Z,1.17
2018-12-09T14:29:53.806Z,1.27
2018-12-09T14:32:22.665Z,1.40
2018-12-09T14:34:52.650Z,1.10
2018-12-09T14:37:22.329Z,1.00
2018-12-09T14:39:51.816Z,1.37
2018-12-09T14:42:20.964Z,1.10
2018-12-09T14:44:49.395Z,1.30
2018-12-09T14:47:17.786Z,1.20
2018-12-09T14:49:46.167Z,1.40
2018-12-09T14:52:14.518Z,1.00
2018-12-09T14:54:43.692Z,1.20
2018-12-09T14:57:13.959Z,1.20
2018-12-09T14:59:43.399Z,1.13
2018-12-09T15:02:12.639Z,1.10
2018-12-09T15:04:42.281Z,1.30
2018-12-09T15:07:11.840Z,0.93
2018-12-09T15:09:40.343Z,1.23
2018-12-09T15:12:10.580Z,1.23
2018-12-09T15:14:40.151Z,1.53
2018-12-09T15:17:09.902Z,1.43
2018-12-09T15:19:40.077Z,1.33
2018-12-09T15:22:09.422Z,1.40
2018-12-09T15:24:41.309Z,1.70
2018-12-09T15:27:08.849Z,1.40
2018-12-09T15:29:37.209Z,1.50
2018-12-09T15:32:07.212Z,1.73
2018-12-09T15:34:36.877Z,1.77
2018-12-09T15:37:05.359Z,1.47
2018-12-09T15:39:34.293Z,1.83
2018-12-09T15:42:04.382Z,1.50
2018-12-09T15:44:34.243Z,1.40
2018-12-09T15:47:03.610Z,2.00
2018-12-09T15:49:33.460Z,1.73
2018-12-09T15:52:03.481Z,1.77
2018-12-09T15:54:33.226Z,1.50
2018-12-09T15:57:02.558Z,1.97
2018-12-09T15:59:32.488Z,2.30
2018-12-09T16:02:02.532Z,1.83
2018-12-09T16:04:31.819Z,2.43
2018-12-09T16:07:01.071Z,1.80
2018-12-09T16:09:30.949Z,2.40
2018-12-09T16:12:00.205Z,1.87
2018-12-09T16:14:30.258Z,1.60
2018-12-09T16:16:59.534Z,2.20
2018-12-09T16:19:29.800Z,2.10
2018-12-09T16:21:59.366Z,1.63
2018-12-09T16:24:27.737Z,2.43
2018-12-09T16:26:56.104Z,2.40
2018-12-09T16:29:24.455Z,1.90
2018-12-09T16:31:53.384Z,2.10
2018-12-09T16:34:22.440Z,2.33
2018-12-09T16:36:51.786Z,2.30
2018-12-09T16:39:21.757Z,1.70
2018-12-09T16:41:50.910Z,1.90
2018-12-09T16:44:20.207Z,2.23
2018-12-09T16:46:49.528Z,2.90
2018-12-09T16:49:17.956Z,3.13
2018-12-09T16:51:47.137Z,2.77
2018-12-09T16:54:15.564Z,1.90
2018-12-09T16:56:45.455Z,2.93
2018-12-09T16:59:14.372Z,2.83
2018-12-09T17:01:44.146Z,2.90
2018-12-09T17:04:15.233Z,2.10
2018-12-09T17:06:44.199Z,2.80
2018-12-09T17:09:13.447Z,2.60
2018-12-09T17:11:43.710Z,2.70
2018-12-09T17:14:15.237Z,2.83
2018-12-09T17:16:45.872Z,2.30
2018-12-09T17:19:15.493Z,2.53
2018-12-09T17:21:46.003Z,2.60
2018-12-09T17:24:17.701Z,3.10
2018-12-09T17:26:51.389Z,2.40
2018-12-09T17:29:24.780Z,3.10
2018-12-09T17:31:56.722Z,3.17
2018-12-09T17:34:28.147Z,3.23
2018-12-09T17:36:58.739Z,3.30
2018-12-09T17:39:29.395Z,3.07
2018-12-09T17:42:00.303Z,3.10
2018-12-09T17:44:30.146Z,3.03
2018-12-09T17:46:59.303Z,3.20
2018-12-09T17:49:27.778Z,2.77
2018-12-09T17:51:57.162Z,2.43
2018-12-09T17:54:25.571Z,3.30
2018-12-09T17:56:54.261Z,2.30
2018-12-09T17:59:23.520Z,2.20
2018-12-09T18:01:56.316Z,2.50
2018-12-09T18:04:24.697Z,2.77
2018-12-09T18:06:54.186Z,2.00
2018-12-09T18:09:24.383Z,2.73
2018-12-09T18:11:54.617Z,2.10
2018-12-09T18:14:25.171Z,2.63
2018-12-09T18:16:54.213Z,2.70
2018-12-09T18:19:23.640Z,3.00
2018-12-09T18:21:53.448Z,2.43
2018-12-09T18:24:22.610Z,3.17
2018-12-09T18:26:52.902Z,2.90
2018-12-09T18:29:22.557Z,3.47
2018-12-09T18:31:52.165Z,2.93
2018-12-09T18:34:21.980Z,2.87
2018-12-09T18:36:51.768Z,4.17
2018-12-09T18:39:21.643Z,2.80
2018-12-09T18:41:51.813Z,3.20
2018-12-09T18:44:21.282Z,2.90
2018-12-09T18:46:51.074Z,3.30
2018-12-09T18:49:21.004Z,3.10
2018-12-09T18:51:51.068Z,2.47
2018-12-09T18:54:20.459Z,3.23
2018-12-09T18:56:50.308Z,2.93
2018-12-09T18:59:20.568Z,4.00
2018-12-09T19:01:51.097Z,3.10
2018-12-09T19:04:20.943Z,3.70
2018-12-09T19:06:50.224Z,2.90
2018-12-09T19:09:18.684Z,2.90
2018-12-09T19:11:47.014Z,2.57
2018-12-09T19:14:15.389Z,2.90
2018-12-09T19:16:44.264Z,2.67
2018-12-09T19:19:14.223Z,2.70
2018-12-09T19:21:43.379Z,2.97
2018-12-09T19:24:12.980Z,3.37
2018-12-09T19:26:42.877Z,2.77
2018-12-09T19:29:12.633Z,2.53
2018-12-09T19:31:42.134Z,1.73
2018-12-09T19:34:11.875Z,1.90
2018-12-09T19:36:41.995Z,2.03
2018-12-09T19:39:11.803Z,2.30
2018-12-09T19:41:40.141Z,1.90
2018-12-09T19:44:09.748Z,2.00
2018-12-09T19:46:39.368Z,2.00
2018-12-09T19:49:07.789Z,2.93
2018-12-09T19:51:36.198Z,2.77
2018-12-09T19:54:04.660Z,3.00
2018-12-09T19:56:34.380Z,3.20
2018-12-09T19:59:04.519Z,2.57
2018-12-09T20:01:34.380Z,2.60
2018-12-09T20:04:04.386Z,2.80
2018-12-09T20:06:34.353Z,4.10
2018-12-09T20:09:05.983Z,2.80
2018-12-09T20:11:34.326Z,3.20
2018-12-09T20:14:04.364Z,3.67
2018-12-09T20:16:34.317Z,2.60
2018-12-09T20:19:03.693Z,2.70
2018-12-09T20:21:33.648Z,2.70
2018-12-09T20:24:03.652Z,3.00
2018-12-09T20:26:33.593Z,2.70
2018-12-09T20:29:03.481Z,2.57
2018-12-09T20:31:33.735Z,1.93
2018-12-09T20:34:03.498Z,1.80
2018-12-09T20:36:33.459Z,2.73
2018-12-09T20:39:04.397Z,2.50
2018-12-09T20:41:34.255Z,2.03
2018-12-09T20:44:03.683Z,2.33
2018-12-09T20:46:33.528Z,2.23
2018-12-09T20:49:03.409Z,2.73
2018-12-09T20:51:32.781Z,2.23
2018-12-09T20:54:03.115Z,2.30
2018-12-09T20:56:32.165Z,2.43
2018-12-09T20:59:02.513Z,2.10
2018-12-09T21:01:31.026Z,3.07
2018-12-09T21:03:59.367Z,2.00
2018-12-09T21:06:27.762Z,2.23
2018-12-09T21:08:56.661Z,2.43
2018-12-09T21:11:25.001Z,2.07
2018-12-09T21:13:54.695Z,2.20
2018-12-09T21:16:24.597Z,2.20
2018-12-09T21:18:54.611Z,2.20
2018-12-09T21:21:23.798Z,2.30
2018-12-09T21:23:53.768Z,1.90
2018-12-09T21:26:24.123Z,1.63
2018-12-09T21:28:54.280Z,1.70
2018-12-09T21:31:23.457Z,2.67
2018-12-09T21:33:53.612Z,1.93
2018-12-09T21:36:23.521Z,2.33
2018-12-09T21:38:53.453Z,2.23
2018-12-09T21:41:22.095Z,2.20
2018-12-09T21:43:53.864Z,2.20
2018-12-09T21:46:24.095Z,2.00
2018-12-09T21:48:53.758Z,2.10
2018-12-09T21:51:22.687Z,2.23
2018-12-09T21:53:53.497Z,3.13
2018-12-09T21:56:23.446Z,2.50
2018-12-09T21:58:52.601Z,2.37
2018-12-09T22:01:21.890Z,2.73
2018-12-09T22:03:51.987Z,2.33
2018-12-09T22:06:21.720Z,2.23
2018-12-09T22:08:50.173Z,2.80
2018-12-09T22:11:19.417Z,2.70
2018-12-09T22:13:48.574Z,3.17
2018-12-09T22:16:17.092Z,2.67
2018-12-09T22:18:47.348Z,2.57
2018-12-09T22:21:16.530Z,2.57
2018-12-09T22:23:45.064Z,2.67
2018-12-09T22:26:14.345Z,2.63
2018-12-09T22:28:44.095Z,2.30
2018-12-09T22:31:13.371Z,3.03
2018-12-09T22:33:42.906Z,2.60
2018-12-09T22:36:12.561Z,2.50
2018-12-09T22:38:41.693Z,2.40
2018-12-09T22:41:11.047Z,2.43
2018-12-09T22:43:40.898Z,3.67
2018-12-09T22:46:11.175Z,2.53
2018-12-09T22:48:41.060Z,2.60
2018-12-09T22:51:11.014Z,2.57
2018-12-09T22:53:41.281Z,2.30
2018-12-09T22:56:10.564Z,2.07
2018-12-09T22:58:39.289Z,1.97
2018-12-09T23:01:13.431Z,2.30
2018-12-09T23:03:42.677Z,2.93
2018-12-09T23:06:12.649Z,2.10
2018-12-09T23:08:42.606Z,2.20
2018-12-09T23:11:11.945Z,2.23
2018-12-09T23:13:42.225Z,2.10
2018-12-09T23:16:11.781Z,2.30
2018-12-09T23:18:41.136Z,2.47
2018-12-09T23:21:10.961Z,2.17
2018-12-09T23:23:40.303Z,2.63
2018-12-09T23:26:09.442Z,2.27
2018-12-09T23:28:39.493Z,1.90
2018-12-09T23:31:09.460Z,2.10
2018-12-09T23:33:39.489Z,2.03
2018-12-09T23:36:09.423Z,2.43
2018-12-09T23:38:39.675Z,2.23
2018-12-09T23:41:09.325Z,1.70
2018-12-09T23:43:37.665Z,2.00
2018-12-09T23:46:06.052Z,2.10
2018-12-09T23:48:35.922Z,2.60
2018-12-09T23:51:05.877Z,2.33
2018-12-09T23:53:34.248Z,1.83
2018-12-09T23:56:04.200Z,1.53
2018-12-09T23:58:33.465Z,1.90
